Lacrosse, WA

7:33 PM PST on December 27, 2014 (GMT -0800)
Central Ferry | Change Station
CLOSE
Current Station
Personal Weather Station
Location: Pomeroy, WA
Elevation: 671 ft
Nearby Weather Stations
Active Advisory: Winter Storm Warning Active Notice: Public Information Statement

Elev 671 ft 46.67 °N, 117.75 °W | Updated 2 minutes ago

Overcast
Overcast
47.4 °F
Feels Like 41 °F
N
15.0
Wind Variable Wind from SW
Gusts 27.0 mph

Today
High -- | Low -- °F
--% Chance of Precip.
Yesterday
High -- | Low -- °F
Precip. -- in
7:35 AM 4:09 PM
Waxing Crescent, 43% visible
Pressure 29.99 in
Visibility 10.0 miles
Clouds Mostly Cloudy 2400 ft
Overcast 7000 ft
Windchill 41 °F
Dew Point 39 °F
Humidity 73%
Rainfall 0.07 in
Snow Depth Not available.
UV 0 out of 12
Pollen .10 out of 12
Air Quality Not available.
Flu Activity Not available.
METAR KPUW 280253Z AUTO 24019G25KT 10SM BKN024 OVC070 03/00 A2993 RMK AO2 PK WND 23027/0240 SLP154 60002 T00330000 56018

More Conditions Fewer Conditions

Pressure 29.99 in
Visibility 10.0 miles
Clouds Mostly Cloudy 2400 ft
Overcast 7000 ft
Windchill 41 °F
Dew Point 39 °F
Humidity 73%
Rainfall 0.07 in
Snow Depth Not available.
UV 0 out of 12
Pollen .10 out of 12
Air Quality Not available.
Flu Activity Not available.
METAR KPUW 280253Z AUTO 24019G25KT 10SM BKN024 OVC070 03/00 A2993 RMK AO2 PK WND 23027/0240 SLP154 60002 T00330000 56018

More Conditions Fewer Conditions

10-Day Weather Forecast

Almanac

Astronomy

Dec. 27, 2014 Rise Set
Actual Time
Civil Twilight
Nautical Twilight
Astronomical Twilight
Moon
Length of Visible Light
Length of Day
Tomorrow will be .
, % of the Moon is Illuminated

Today's Extremes

State Highs State Lows

Community

WunderPhotos

Upload Photos

1,781,180 photos uploaded!

WunderBlogs® & News

Nearby

Air Quality

  Air Quality AQ Index Pollutant
Not available.

Snow Depth

Station Depth Elevation

Earthquake Activity

City Distance Mag. Time & Date
Minimum magnitude displayed is 2.5.

Coastal Water Temperatures

Place Temperature

Nearby Weather Stations